sensor_id;sensor_type;location;lat;lon;timestamp;P1;durP1;ratioP1;P2;durP2;ratioP2
1178;SDS011;578;48.408;10.004;2022-09-03T00:02:31;3.10;;;2.27;;
1178;SDS011;578;48.408;10.004;2022-09-03T00:05:05;2.23;;;1.90;;
1178;SDS011;578;48.408;10.004;2022-09-03T00:07:38;2.23;;;2.03;;
1178;SDS011;578;48.408;10.004;2022-09-03T00:10:11;3.80;;;2.30;;
1178;SDS011;578;48.408;10.004;2022-09-03T00:12:41;4.53;;;2.10;;
1178;SDS011;578;48.408;10.004;2022-09-03T00:15:10;2.70;;;1.97;;
1178;SDS011;578;48.408;10.004;2022-09-03T00:17:40;2.87;;;2.43;;
1178;SDS011;578;48.408;10.004;2022-09-03T00:20:12;3.27;;;2.23;;
1178;SDS011;578;48.408;10.004;2022-09-03T00:22:44;2.53;;;2.33;;
1178;SDS011;578;48.408;10.004;2022-09-03T00:25:15;4.30;;;2.20;;
1178;SDS011;578;48.408;10.004;2022-09-03T00:27:46;3.27;;;2.73;;
1178;SDS011;578;48.408;10.004;2022-09-03T00:30:16;2.47;;;2.10;;
1178;SDS011;578;48.408;10.004;2022-09-03T00:32:44;3.80;;;2.10;;
1178;SDS011;578;48.408;10.004;2022-09-03T00:35:19;2.60;;;2.00;;
1178;SDS011;578;48.408;10.004;2022-09-03T00:37:50;4.93;;;2.17;;
1178;SDS011;578;48.408;10.004;2022-09-03T00:40:20;4.60;;;2.00;;
1178;SDS011;578;48.408;10.004;2022-09-03T00:42:57;3.87;;;2.30;;
1178;SDS011;578;48.408;10.004;2022-09-03T00:45:31;3.00;;;2.30;;
1178;SDS011;578;48.408;10.004;2022-09-03T00:48:05;2.50;;;2.20;;
1178;SDS011;578;48.408;10.004;2022-09-03T00:50:45;3.67;;;2.50;;
1178;SDS011;578;48.408;10.004;2022-09-03T00:53:27;2.87;;;2.40;;
1178;SDS011;578;48.408;10.004;2022-09-03T00:56:01;3.10;;;2.40;;
1178;SDS011;578;48.408;10.004;2022-09-03T00:58:37;4.33;;;2.50;;
1178;SDS011;578;48.408;10.004;2022-09-03T01:01:13;2.30;;;2.10;;
1178;SDS011;578;48.408;10.004;2022-09-03T01:03:47;4.57;;;3.10;;
1178;SDS011;578;48.408;10.004;2022-09-03T01:06:26;4.90;;;2.77;;
1178;SDS011;578;48.408;10.004;2022-09-03T01:09:02;2.60;;;2.40;;
1178;SDS011;578;48.408;10.004;2022-09-03T01:11:45;3.60;;;2.93;;
1178;SDS011;578;48.408;10.004;2022-09-03T01:14:26;2.60;;;2.40;;
1178;SDS011;578;48.408;10.004;2022-09-03T01:17:07;2.57;;;2.33;;
1178;SDS011;578;48.408;10.004;2022-09-03T01:22:59;3.00;;;2.47;;
1178;SDS011;578;48.408;10.004;2022-09-03T01:25:44;3.00;;;2.70;;
1178;SDS011;578;48.408;10.004;2022-09-03T01:28:20;3.90;;;2.63;;
1178;SDS011;578;48.408;10.004;2022-09-03T01:30:56;3.10;;;2.63;;
1178;SDS011;578;48.408;10.004;2022-09-03T01:33:32;4.60;;;2.60;;
1178;SDS011;578;48.408;10.004;2022-09-03T01:36:06;2.90;;;2.57;;
1178;SDS011;578;48.408;10.004;2022-09-03T01:38:43;5.17;;;2.70;;
1178;SDS011;578;48.408;10.004;2022-09-03T01:41:15;8.33;;;2.50;;
1178;SDS011;578;48.408;10.004;2022-09-03T01:44:07;3.83;;;2.67;;
1178;SDS011;578;48.408;10.004;2022-09-03T01:46:41;4.60;;;2.60;;
1178;SDS011;578;48.408;10.004;2022-09-03T01:49:12;4.17;;;2.40;;
1178;SDS011;578;48.408;10.004;2022-09-03T01:51:46;3.53;;;2.77;;
1178;SDS011;578;48.408;10.004;2022-09-03T01:54:25;6.87;;;3.27;;
1178;SDS011;578;48.408;10.004;2022-09-03T02:00:08;5.67;;;3.23;;
1178;SDS011;578;48.408;10.004;2022-09-03T02:02:38;3.10;;;2.53;;
1178;SDS011;578;48.408;10.004;2022-09-03T02:05:06;4.30;;;3.10;;
1178;SDS011;578;48.408;10.004;2022-09-03T02:07:36;3.40;;;2.77;;
1178;SDS011;578;48.408;10.004;2022-09-03T02:10:06;3.03;;;2.73;;
1178;SDS011;578;48.408;10.004;2022-09-03T02:12:35;4.20;;;3.53;;
1178;SDS011;578;48.408;10.004;2022-09-03T02:15:09;3.00;;;2.70;;
1178;SDS011;578;48.408;10.004;2022-09-03T02:17:38;3.20;;;2.43;;
1178;SDS011;578;48.408;10.004;2022-09-03T02:20:09;3.60;;;2.80;;
1178;SDS011;578;48.408;10.004;2022-09-03T02:22:43;2.80;;;2.50;;
1178;SDS011;578;48.408;10.004;2022-09-03T02:25:10;4.00;;;2.73;;
1178;SDS011;578;48.408;10.004;2022-09-03T02:27:38;3.07;;;2.77;;
1178;SDS011;578;48.408;10.004;2022-09-03T02:30:06;3.03;;;2.67;;
1178;SDS011;578;48.408;10.004;2022-09-03T02:32:35;3.00;;;2.70;;
1178;SDS011;578;48.408;10.004;2022-09-03T02:35:02;3.10;;;2.80;;
1178;SDS011;578;48.408;10.004;2022-09-03T02:37:29;3.70;;;2.33;;
1178;SDS011;578;48.408;10.004;2022-09-03T02:39:56;3.90;;;2.40;;
1178;SDS011;578;48.408;10.004;2022-09-03T02:42:22;3.60;;;2.90;;
1178;SDS011;578;48.408;10.004;2022-09-03T02:44:50;2.77;;;2.53;;
1178;SDS011;578;48.408;10.004;2022-09-03T02:47:20;6.60;;;2.33;;
1178;SDS011;578;48.408;10.004;2022-09-03T02:49:56;5.23;;;3.33;;
1178;SDS011;578;48.408;10.004;2022-09-03T02:52:22;3.30;;;2.70;;
1178;SDS011;578;48.408;10.004;2022-09-03T02:54:49;3.37;;;2.70;;
1178;SDS011;578;48.408;10.004;2022-09-03T02:57:16;3.83;;;3.03;;
1178;SDS011;578;48.408;10.004;2022-09-03T02:59:43;3.37;;;2.77;;
1178;SDS011;578;48.408;10.004;2022-09-03T03:02:10;3.73;;;3.43;;
1178;SDS011;578;48.408;10.004;2022-09-03T03:04:37;4.13;;;3.30;;
1178;SDS011;578;48.408;10.004;2022-09-03T03:07:05;3.87;;;3.27;;
1178;SDS011;578;48.408;10.004;2022-09-03T03:09:32;5.50;;;3.30;;
1178;SDS011;578;48.408;10.004;2022-09-03T03:11:59;4.00;;;3.30;;
1178;SDS011;578;48.408;10.004;2022-09-03T03:14:26;3.80;;;3.40;;
1178;SDS011;578;48.408;10.004;2022-09-03T03:16:52;6.47;;;4.00;;
1178;SDS011;578;48.408;10.004;2022-09-03T03:19:19;3.80;;;3.30;;
1178;SDS011;578;48.408;10.004;2022-09-03T03:21:46;4.37;;;3.87;;
1178;SDS011;578;48.408;10.004;2022-09-03T03:24:14;5.07;;;3.50;;
1178;SDS011;578;48.408;10.004;2022-09-03T03:26:40;3.60;;;3.30;;
1178;SDS011;578;48.408;10.004;2022-09-03T03:29:07;4.00;;;3.40;;
1178;SDS011;578;48.408;10.004;2022-09-03T03:31:40;4.37;;;3.80;;
1178;SDS011;578;48.408;10.004;2022-09-03T03:34:07;5.27;;;3.30;;
1178;SDS011;578;48.408;10.004;2022-09-03T03:36:34;3.37;;;3.07;;
1178;SDS011;578;48.408;10.004;2022-09-03T03:39:01;4.33;;;3.57;;
1178;SDS011;578;48.408;10.004;2022-09-03T03:41:30;4.00;;;3.63;;
1178;SDS011;578;48.408;10.004;2022-09-03T03:43:58;4.03;;;3.63;;
1178;SDS011;578;48.408;10.004;2022-09-03T03:46:27;4.33;;;3.80;;
1178;SDS011;578;48.408;10.004;2022-09-03T03:48:56;3.93;;;3.40;;
1178;SDS011;578;48.408;10.004;2022-09-03T03:51:23;4.13;;;3.73;;
1178;SDS011;578;48.408;10.004;2022-09-03T03:53:52;5.30;;;3.87;;
1178;SDS011;578;48.408;10.004;2022-09-03T03:56:20;5.77;;;3.40;;
1178;SDS011;578;48.408;10.004;2022-09-03T03:58:49;3.90;;;3.13;;
1178;SDS011;578;48.408;10.004;2022-09-03T04:01:16;4.30;;;3.43;;
1178;SDS011;578;48.408;10.004;2022-09-03T04:03:44;4.10;;;3.23;;
1178;SDS011;578;48.408;10.004;2022-09-03T04:06:12;6.10;;;4.07;;
1178;SDS011;578;48.408;10.004;2022-09-03T04:08:41;4.30;;;3.50;;
1178;SDS011;578;48.408;10.004;2022-09-03T04:11:09;4.20;;;3.73;;
1178;SDS011;578;48.408;10.004;2022-09-03T04:13:38;3.57;;;3.27;;
1178;SDS011;578;48.408;10.004;2022-09-03T04:16:08;3.73;;;3.33;;
1178;SDS011;578;48.408;10.004;2022-09-03T04:18:37;3.67;;;3.30;;
1178;SDS011;578;48.408;10.004;2022-09-03T04:21:05;6.13;;;3.67;;
1178;SDS011;578;48.408;10.004;2022-09-03T04:23:33;4.10;;;3.70;;
1178;SDS011;578;48.408;10.004;2022-09-03T04:26:02;3.83;;;3.30;;
1178;SDS011;578;48.408;10.004;2022-09-03T04:28:29;4.40;;;4.07;;
1178;SDS011;578;48.408;10.004;2022-09-03T04:30:59;4.47;;;4.07;;
1178;SDS011;578;48.408;10.004;2022-09-03T04:33:28;5.30;;;4.70;;
1178;SDS011;578;48.408;10.004;2022-09-03T04:36:01;4.90;;;3.60;;
1178;SDS011;578;48.408;10.004;2022-09-03T04:38:30;4.20;;;3.90;;
1178;SDS011;578;48.408;10.004;2022-09-03T04:40:57;4.67;;;4.20;;
1178;SDS011;578;48.408;10.004;2022-09-03T04:43:24;4.53;;;4.20;;
1178;SDS011;578;48.408;10.004;2022-09-03T04:45:54;12.93;;;5.70;;
1178;SDS011;578;48.408;10.004;2022-09-03T04:48:22;4.53;;;4.13;;
1178;SDS011;578;48.408;10.004;2022-09-03T04:50:50;5.63;;;4.30;;
1178;SDS011;578;48.408;10.004;2022-09-03T04:53:19;4.23;;;3.93;;
1178;SDS011;578;48.408;10.004;2022-09-03T04:55:46;4.70;;;4.30;;
1178;SDS011;578;48.408;10.004;2022-09-03T04:58:13;4.97;;;4.47;;
1178;SDS011;578;48.408;10.004;2022-09-03T05:00:39;7.07;;;4.70;;
1178;SDS011;578;48.408;10.004;2022-09-03T05:03:06;4.40;;;4.10;;
1178;SDS011;578;48.408;10.004;2022-09-03T05:05:33;5.43;;;5.03;;
1178;SDS011;578;48.408;10.004;2022-09-03T05:08:01;5.00;;;4.50;;
1178;SDS011;578;48.408;10.004;2022-09-03T05:10:29;6.90;;;4.43;;
1178;SDS011;578;48.408;10.004;2022-09-03T05:12:57;4.37;;;3.77;;
1178;SDS011;578;48.408;10.004;2022-09-03T05:15:24;5.77;;;4.90;;
1178;SDS011;578;48.408;10.004;2022-09-03T05:17:54;5.33;;;4.37;;
1178;SDS011;578;48.408;10.004;2022-09-03T05:20:21;5.53;;;4.73;;
1178;SDS011;578;48.408;10.004;2022-09-03T05:22:49;5.17;;;4.77;;
1178;SDS011;578;48.408;10.004;2022-09-03T05:25:17;5.87;;;5.27;;
1178;SDS011;578;48.408;10.004;2022-09-03T05:27:44;7.90;;;5.00;;
1178;SDS011;578;48.408;10.004;2022-09-03T05:30:11;5.47;;;5.07;;
1178;SDS011;578;48.408;10.004;2022-09-03T05:32:38;4.67;;;4.27;;
1178;SDS011;578;48.408;10.004;2022-09-03T05:35:05;6.73;;;5.40;;
1178;SDS011;578;48.408;10.004;2022-09-03T05:37:34;5.77;;;5.27;;
1178;SDS011;578;48.408;10.004;2022-09-03T05:40:01;5.77;;;4.93;;
1178;SDS011;578;48.408;10.004;2022-09-03T05:42:30;5.27;;;4.87;;
1178;SDS011;578;48.408;10.004;2022-09-03T05:45:02;5.07;;;4.60;;
1178;SDS011;578;48.408;10.004;2022-09-03T05:47:33;4.83;;;4.43;;
1178;SDS011;578;48.408;10.004;2022-09-03T05:50:00;5.67;;;4.90;;
1178;SDS011;578;48.408;10.004;2022-09-03T05:52:27;5.60;;;5.20;;
1178;SDS011;578;48.408;10.004;2022-09-03T05:54:54;5.77;;;5.17;;
1178;SDS011;578;48.408;10.004;2022-09-03T05:57:20;5.73;;;4.60;;
1178;SDS011;578;48.408;10.004;2022-09-03T05:59:48;5.80;;;5.30;;
1178;SDS011;578;48.408;10.004;2022-09-03T06:02:15;5.07;;;4.67;;
1178;SDS011;578;48.408;10.004;2022-09-03T06:04:43;5.50;;;5.00;;
1178;SDS011;578;48.408;10.004;2022-09-03T06:07:10;5.10;;;4.60;;
1178;SDS011;578;48.408;10.004;2022-09-03T06:09:37;5.17;;;4.67;;
1178;SDS011;578;48.408;10.004;2022-09-03T06:12:03;5.47;;;4.80;;
1178;SDS011;578;48.408;10.004;2022-09-03T06:14:30;5.90;;;5.40;;
1178;SDS011;578;48.408;10.004;2022-09-03T06:16:58;7.63;;;5.27;;
1178;SDS011;578;48.408;10.004;2022-09-03T06:19:25;5.67;;;5.17;;
1178;SDS011;578;48.408;10.004;2022-09-03T06:21:51;5.23;;;4.83;;
1178;SDS011;578;48.408;10.004;2022-09-03T06:24:19;6.67;;;4.77;;
1178;SDS011;578;48.408;10.004;2022-09-03T06:26:47;6.27;;;5.67;;
1178;SDS011;578;48.408;10.004;2022-09-03T06:29:15;6.63;;;5.00;;
1178;SDS011;578;48.408;10.004;2022-09-03T06:31:44;6.47;;;5.07;;
1178;SDS011;578;48.408;10.004;2022-09-03T06:34:14;6.20;;;5.60;;
1178;SDS011;578;48.408;10.004;2022-09-03T06:36:42;5.50;;;5.00;;
1178;SDS011;578;48.408;10.004;2022-09-03T06:39:09;5.73;;;4.87;;
1178;SDS011;578;48.408;10.004;2022-09-03T06:41:36;6.30;;;5.10;;
1178;SDS011;578;48.408;10.004;2022-09-03T06:44:04;6.43;;;5.40;;
1178;SDS011;578;48.408;10.004;2022-09-03T06:46:36;5.50;;;5.00;;
1178;SDS011;578;48.408;10.004;2022-09-03T06:49:06;5.80;;;5.30;;
1178;SDS011;578;48.408;10.004;2022-09-03T06:51:35;6.50;;;5.90;;
1178;SDS011;578;48.408;10.004;2022-09-03T06:54:03;4.97;;;4.57;;
1178;SDS011;578;48.408;10.004;2022-09-03T06:56:32;5.37;;;4.83;;
1178;SDS011;578;48.408;10.004;2022-09-03T06:59:02;5.97;;;5.47;;
1178;SDS011;578;48.408;10.004;2022-09-03T07:01:31;6.50;;;5.50;;
1178;SDS011;578;48.408;10.004;2022-09-03T07:03:59;5.20;;;4.80;;
1178;SDS011;578;48.408;10.004;2022-09-03T07:06:27;6.50;;;5.83;;
1178;SDS011;578;48.408;10.004;2022-09-03T07:08:57;5.73;;;5.13;;
1178;SDS011;578;48.408;10.004;2022-09-03T07:11:25;11.40;;;4.80;;
1178;SDS011;578;48.408;10.004;2022-09-03T07:13:54;5.30;;;4.80;;
1178;SDS011;578;48.408;10.004;2022-09-03T07:16:23;6.93;;;5.37;;
1178;SDS011;578;48.408;10.004;2022-09-03T07:18:51;5.50;;;5.07;;
1178;SDS011;578;48.408;10.004;2022-09-03T07:21:19;5.70;;;5.30;;
1178;SDS011;578;48.408;10.004;2022-09-03T07:23:47;5.83;;;4.97;;
1178;SDS011;578;48.408;10.004;2022-09-03T07:26:18;6.17;;;5.10;;
1178;SDS011;578;48.408;10.004;2022-09-03T07:28:46;5.40;;;4.90;;
1178;SDS011;578;48.408;10.004;2022-09-03T07:31:15;6.03;;;5.43;;
1178;SDS011;578;48.408;10.004;2022-09-03T07:33:43;6.93;;;6.23;;
1178;SDS011;578;48.408;10.004;2022-09-03T07:36:11;6.20;;;5.60;;
1178;SDS011;578;48.408;10.004;2022-09-03T07:38:40;10.30;;;7.00;;
1178;SDS011;578;48.408;10.004;2022-09-03T07:41:08;12.57;;;6.23;;
1178;SDS011;578;48.408;10.004;2022-09-03T07:43:38;6.37;;;5.67;;
1178;SDS011;578;48.408;10.004;2022-09-03T07:46:06;8.97;;;5.63;;
1178;SDS011;578;48.408;10.004;2022-09-03T07:48:32;6.13;;;5.53;;
1178;SDS011;578;48.408;10.004;2022-09-03T07:50:59;5.73;;;5.23;;
1178;SDS011;578;48.408;10.004;2022-09-03T07:53:26;6.40;;;5.90;;
1178;SDS011;578;48.408;10.004;2022-09-03T07:55:59;6.33;;;5.83;;
1178;SDS011;578;48.408;10.004;2022-09-03T07:58:27;7.50;;;5.87;;
1178;SDS011;578;48.408;10.004;2022-09-03T08:00:55;7.00;;;6.30;;
1178;SDS011;578;48.408;10.004;2022-09-03T08:03:22;6.90;;;6.00;;
1178;SDS011;578;48.408;10.004;2022-09-03T08:05:49;6.97;;;6.27;;
1178;SDS011;578;48.408;10.004;2022-09-03T08:08:16;6.57;;;6.07;;
1178;SDS011;578;48.408;10.004;2022-09-03T08:10:42;7.50;;;6.80;;
1178;SDS011;578;48.408;10.004;2022-09-03T08:13:09;6.80;;;5.40;;
1178;SDS011;578;48.408;10.004;2022-09-03T08:15:36;8.37;;;6.40;;
1178;SDS011;578;48.408;10.004;2022-09-03T08:18:05;7.37;;;6.77;;
1178;SDS011;578;48.408;10.004;2022-09-03T08:20:32;7.50;;;6.80;;
1178;SDS011;578;48.408;10.004;2022-09-03T08:22:59;8.90;;;7.00;;
1178;SDS011;578;48.408;10.004;2022-09-03T08:25:26;7.57;;;6.70;;
1178;SDS011;578;48.408;10.004;2022-09-03T08:27:53;6.67;;;6.10;;
1178;SDS011;578;48.408;10.004;2022-09-03T08:30:23;6.87;;;6.30;;
1178;SDS011;578;48.408;10.004;2022-09-03T08:32:50;9.50;;;7.23;;
1178;SDS011;578;48.408;10.004;2022-09-03T08:35:18;8.70;;;6.40;;
1178;SDS011;578;48.408;10.004;2022-09-03T08:37:45;7.60;;;6.73;;
1178;SDS011;578;48.408;10.004;2022-09-03T08:40:13;7.77;;;6.90;;
1178;SDS011;578;48.408;10.004;2022-09-03T08:42:44;6.73;;;6.00;;
1178;SDS011;578;48.408;10.004;2022-09-03T08:45:18;7.40;;;6.80;;
1178;SDS011;578;48.408;10.004;2022-09-03T08:47:47;6.90;;;6.30;;
1178;SDS011;578;48.408;10.004;2022-09-03T08:50:21;6.23;;;5.70;;
1178;SDS011;578;48.408;10.004;2022-09-03T08:52:51;6.57;;;5.87;;
1178;SDS011;578;48.408;10.004;2022-09-03T08:55:22;7.73;;;6.33;;
1178;SDS011;578;48.408;10.004;2022-09-03T08:57:54;6.77;;;6.27;;
1178;SDS011;578;48.408;10.004;2022-09-03T09:00:26;6.37;;;5.77;;
1178;SDS011;578;48.408;10.004;2022-09-03T09:03:06;8.53;;;6.20;;
1178;SDS011;578;48.408;10.004;2022-09-03T09:05:52;5.37;;;4.97;;
1178;SDS011;578;48.408;10.004;2022-09-03T09:08:23;5.90;;;4.60;;
1178;SDS011;578;48.408;10.004;2022-09-03T09:11:00;6.10;;;5.53;;
1178;SDS011;578;48.408;10.004;2022-09-03T09:13:35;5.50;;;5.00;;
1178;SDS011;578;48.408;10.004;2022-09-03T09:16:08;5.20;;;4.70;;
1178;SDS011;578;48.408;10.004;2022-09-03T09:18:46;5.93;;;5.33;;
1178;SDS011;578;48.408;10.004;2022-09-03T09:21:30;6.30;;;5.30;;
1178;SDS011;578;48.408;10.004;2022-09-03T09:24:05;4.77;;;4.37;;
1178;SDS011;578;48.408;10.004;2022-09-03T09:26:36;5.77;;;5.10;;
1178;SDS011;578;48.408;10.004;2022-09-03T09:29:08;5.93;;;5.43;;
1178;SDS011;578;48.408;10.004;2022-09-03T09:31:39;4.70;;;4.27;;
1178;SDS011;578;48.408;10.004;2022-09-03T09:34:09;5.40;;;4.90;;
1178;SDS011;578;48.408;10.004;2022-09-03T09:36:40;4.87;;;4.37;;
1178;SDS011;578;48.408;10.004;2022-09-03T09:39:14;5.80;;;4.73;;
1178;SDS011;578;48.408;10.004;2022-09-03T09:41:41;5.37;;;4.93;;
1178;SDS011;578;48.408;10.004;2022-09-03T09:44:23;5.30;;;4.80;;
1178;SDS011;578;48.408;10.004;2022-09-03T09:47:02;5.53;;;5.10;;
1178;SDS011;578;48.408;10.004;2022-09-03T09:49:42;5.43;;;4.93;;
1178;SDS011;578;48.408;10.004;2022-09-03T09:52:25;9.30;;;4.90;;
1178;SDS011;578;48.408;10.004;2022-09-03T09:55:04;5.80;;;5.30;;
1178;SDS011;578;48.408;10.004;2022-09-03T09:57:37;5.53;;;5.03;;
1178;SDS011;578;48.408;10.004;2022-09-03T10:00:06;5.73;;;5.00;;
1178;SDS011;578;48.408;10.004;2022-09-03T10:02:39;5.83;;;5.33;;
1178;SDS011;578;48.408;10.004;2022-09-03T10:05:13;5.97;;;5.37;;
1178;SDS011;578;48.408;10.004;2022-09-03T10:07:58;5.20;;;4.40;;
1178;SDS011;578;48.408;10.004;2022-09-03T10:10:30;5.07;;;4.67;;
1178;SDS011;578;48.408;10.004;2022-09-03T10:13:03;5.47;;;5.03;;
1178;SDS011;578;48.408;10.004;2022-09-03T10:15:39;4.70;;;4.30;;
1178;SDS011;578;48.408;10.004;2022-09-03T10:18:18;5.80;;;5.20;;
1178;SDS011;578;48.408;10.004;2022-09-03T10:20:54;8.23;;;5.23;;
1178;SDS011;578;48.408;10.004;2022-09-03T10:23:31;5.33;;;4.83;;
1178;SDS011;578;48.408;10.004;2022-09-03T10:26:01;5.77;;;5.27;;
1178;SDS011;578;48.408;10.004;2022-09-03T10:28:32;7.43;;;4.90;;
1178;SDS011;578;48.408;10.004;2022-09-03T10:31:09;5.57;;;5.03;;
1178;SDS011;578;48.408;10.004;2022-09-03T10:33:48;5.43;;;4.97;;
1178;SDS011;578;48.408;10.004;2022-09-03T10:36:20;4.77;;;4.40;;
1178;SDS011;578;48.408;10.004;2022-09-03T10:38:53;4.50;;;4.10;;
1178;SDS011;578;48.408;10.004;2022-09-03T10:41:31;5.73;;;5.13;;
1178;SDS011;578;48.408;10.004;2022-09-03T10:44:15;8.00;;;4.43;;
1178;SDS011;578;48.408;10.004;2022-09-03T10:47:07;4.80;;;4.40;;
1178;SDS011;578;48.408;10.004;2022-09-03T10:49:45;5.30;;;4.73;;
1178;SDS011;578;48.408;10.004;2022-09-03T10:52:16;4.10;;;3.70;;
1178;SDS011;578;48.408;10.004;2022-09-03T10:54:56;4.60;;;4.30;;
1178;SDS011;578;48.408;10.004;2022-09-03T10:57:35;3.73;;;3.40;;
1178;SDS011;578;48.408;10.004;2022-09-03T11:00:11;4.43;;;3.30;;
1178;SDS011;578;48.408;10.004;2022-09-03T11:02:50;3.03;;;2.73;;
1178;SDS011;578;48.408;10.004;2022-09-03T11:05:44;3.60;;;3.30;;
1178;SDS011;578;48.408;10.004;2022-09-03T11:08:20;3.63;;;2.83;;
1178;SDS011;578;48.408;10.004;2022-09-03T11:10:54;3.50;;;2.43;;
1178;SDS011;578;48.408;10.004;2022-09-03T11:13:26;2.33;;;2.10;;
1178;SDS011;578;48.408;10.004;2022-09-03T11:16:00;3.10;;;2.20;;
1178;SDS011;578;48.408;10.004;2022-09-03T11:18:32;2.70;;;1.90;;
1178;SDS011;578;48.408;10.004;2022-09-03T11:21:04;2.40;;;2.20;;
1178;SDS011;578;48.408;10.004;2022-09-03T11:23:37;2.13;;;1.93;;
1178;SDS011;578;48.408;10.004;2022-09-03T11:26:10;2.60;;;1.70;;
1178;SDS011;578;48.408;10.004;2022-09-03T11:28:40;3.30;;;1.77;;
1178;SDS011;578;48.408;10.004;2022-09-03T11:31:19;1.90;;;1.50;;
1178;SDS011;578;48.408;10.004;2022-09-03T11:33:52;2.30;;;2.10;;
1178;SDS011;578;48.408;10.004;2022-09-03T11:36:26;2.30;;;1.70;;
1178;SDS011;578;48.408;10.004;2022-09-03T11:38:56;2.40;;;2.10;;
1178;SDS011;578;48.408;10.004;2022-09-03T11:41:26;2.07;;;1.70;;
1178;SDS011;578;48.408;10.004;2022-09-03T11:44:09;2.57;;;2.10;;
1178;SDS011;578;48.408;10.004;2022-09-03T11:46:38;1.90;;;1.80;;
1178;SDS011;578;48.408;10.004;2022-09-03T11:49:09;2.43;;;1.83;;
1178;SDS011;578;48.408;10.004;2022-09-03T11:51:38;2.00;;;1.73;;
1178;SDS011;578;48.408;10.004;2022-09-03T11:54:22;2.13;;;1.93;;
1178;SDS011;578;48.408;10.004;2022-09-03T11:57:02;24.70;;;12.87;;
1178;SDS011;578;48.408;10.004;2022-09-03T11:59:37;4.83;;;2.87;;
1178;SDS011;578;48.408;10.004;2022-09-03T12:02:11;3.70;;;2.47;;
1178;SDS011;578;48.408;10.004;2022-09-03T12:04:50;5.50;;;3.60;;
1178;SDS011;578;48.408;10.004;2022-09-03T12:07:33;2.87;;;2.27;;
1178;SDS011;578;48.408;10.004;2022-09-03T12:10:14;3.10;;;1.97;;
1178;SDS011;578;48.408;10.004;2022-09-03T12:12:54;2.60;;;2.40;;
1178;SDS011;578;48.408;10.004;2022-09-03T12:18:32;4.43;;;2.27;;
1178;SDS011;578;48.408;10.004;2022-09-03T12:21:00;9.47;;;4.43;;
1178;SDS011;578;48.408;10.004;2022-09-03T12:23:29;7.10;;;2.60;;
1178;SDS011;578;48.408;10.004;2022-09-03T12:25:58;5.10;;;2.10;;
1178;SDS011;578;48.408;10.004;2022-09-03T12:28:28;7.30;;;2.43;;
1178;SDS011;578;48.408;10.004;2022-09-03T12:31:04;7.93;;;2.90;;
1178;SDS011;578;48.408;10.004;2022-09-03T12:33:39;5.40;;;3.00;;
1178;SDS011;578;48.408;10.004;2022-09-03T12:36:07;5.50;;;3.63;;
1178;SDS011;578;48.408;10.004;2022-09-03T12:38:35;4.60;;;2.80;;
1178;SDS011;578;48.408;10.004;2022-09-03T12:41:02;4.10;;;3.03;;
1178;SDS011;578;48.408;10.004;2022-09-03T12:43:30;3.53;;;2.80;;
1178;SDS011;578;48.408;10.004;2022-09-03T12:45:57;4.63;;;2.93;;
1178;SDS011;578;48.408;10.004;2022-09-03T12:48:24;4.70;;;3.23;;
1178;SDS011;578;48.408;10.004;2022-09-03T12:50:59;4.27;;;3.03;;
1178;SDS011;578;48.408;10.004;2022-09-03T12:53:27;6.80;;;2.73;;
1178;SDS011;578;48.408;10.004;2022-09-03T12:55:58;2.70;;;2.03;;
1178;SDS011;578;48.408;10.004;2022-09-03T12:58:29;4.73;;;2.30;;
1178;SDS011;578;48.408;10.004;2022-09-03T13:01:04;2.40;;;2.07;;
1178;SDS011;578;48.408;10.004;2022-09-03T13:03:38;2.97;;;1.80;;
1178;SDS011;578;48.408;10.004;2022-09-03T13:06:10;3.37;;;1.97;;
1178;SDS011;578;48.408;10.004;2022-09-03T13:08:44;2.40;;;1.40;;
1178;SDS011;578;48.408;10.004;2022-09-03T13:11:14;1.90;;;1.47;;
1178;SDS011;578;48.408;10.004;2022-09-03T13:13:49;1.97;;;1.37;;
1178;SDS011;578;48.408;10.004;2022-09-03T13:16:34;1.60;;;1.00;;
1178;SDS011;578;48.408;10.004;2022-09-03T13:19:22;2.20;;;1.20;;
1178;SDS011;578;48.408;10.004;2022-09-03T13:21:59;1.97;;;0.83;;
1178;SDS011;578;48.408;10.004;2022-09-03T13:24:47;1.47;;;0.90;;
1178;SDS011;578;48.408;10.004;2022-09-03T13:27:25;1.40;;;0.93;;
1178;SDS011;578;48.408;10.004;2022-09-03T13:30:06;1.70;;;1.17;;
1178;SDS011;578;48.408;10.004;2022-09-03T13:32:36;2.07;;;0.90;;
1178;SDS011;578;48.408;10.004;2022-09-03T13:35:10;2.10;;;1.10;;
1178;SDS011;578;48.408;10.004;2022-09-03T13:37:42;1.50;;;0.90;;
1178;SDS011;578;48.408;10.004;2022-09-03T13:40:14;1.20;;;0.90;;
1178;SDS011;578;48.408;10.004;2022-09-03T13:42:49;2.50;;;1.00;;
1178;SDS011;578;48.408;10.004;2022-09-03T13:45:22;2.53;;;1.20;;
1178;SDS011;578;48.408;10.004;2022-09-03T13:47:56;2.07;;;1.03;;
1178;SDS011;578;48.408;10.004;2022-09-03T13:50:46;2.63;;;1.10;;
1178;SDS011;578;48.408;10.004;2022-09-03T13:53:19;1.43;;;0.90;;
1178;SDS011;578;48.408;10.004;2022-09-03T13:55:54;3.33;;;1.50;;
1178;SDS011;578;48.408;10.004;2022-09-03T13:58:29;3.30;;;1.20;;
1178;SDS011;578;48.408;10.004;2022-09-03T14:01:07;2.23;;;1.17;;
1178;SDS011;578;48.408;10.004;2022-09-03T14:03:42;2.10;;;1.10;;
1178;SDS011;578;48.408;10.004;2022-09-03T14:06:12;2.20;;;1.50;;
1178;SDS011;578;48.408;10.004;2022-09-03T14:08:52;1.80;;;1.37;;
1178;SDS011;578;48.408;10.004;2022-09-03T14:11:28;3.77;;;1.77;;
1178;SDS011;578;48.408;10.004;2022-09-03T14:14:02;3.03;;;1.50;;
1178;SDS011;578;48.408;10.004;2022-09-03T14:16:38;1.53;;;1.23;;
1178;SDS011;578;48.408;10.004;2022-09-03T14:19:10;4.43;;;1.30;;
1178;SDS011;578;48.408;10.004;2022-09-03T14:21:46;2.33;;;1.07;;
1178;SDS011;578;48.408;10.004;2022-09-03T14:24:19;4.33;;;1.40;;
1178;SDS011;578;48.408;10.004;2022-09-03T14:26:50;1.57;;;0.83;;
1178;SDS011;578;48.408;10.004;2022-09-03T14:29:20;1.80;;;1.40;;
1178;SDS011;578;48.408;10.004;2022-09-03T14:31:59;3.00;;;1.40;;
1178;SDS011;578;48.408;10.004;2022-09-03T14:37:48;2.10;;;1.30;;
1178;SDS011;578;48.408;10.004;2022-09-03T14:40:34;1.70;;;1.00;;
1178;SDS011;578;48.408;10.004;2022-09-03T14:43:11;3.50;;;1.10;;
1178;SDS011;578;48.408;10.004;2022-09-03T14:46:00;3.60;;;1.30;;
1178;SDS011;578;48.408;10.004;2022-09-03T14:48:50;2.47;;;1.30;;
1178;SDS011;578;48.408;10.004;2022-09-03T14:51:30;1.67;;;1.40;;
1178;SDS011;578;48.408;10.004;2022-09-03T14:54:10;2.20;;;1.33;;
1178;SDS011;578;48.408;10.004;2022-09-03T14:57:02;1.47;;;1.27;;
1178;SDS011;578;48.408;10.004;2022-09-03T14:59:40;2.27;;;1.47;;
1178;SDS011;578;48.408;10.004;2022-09-03T15:05:43;1.60;;;1.27;;
1178;SDS011;578;48.408;10.004;2022-09-03T15:11:29;2.60;;;1.50;;
1178;SDS011;578;48.408;10.004;2022-09-03T15:13:59;2.80;;;1.20;;
1178;SDS011;578;48.408;10.004;2022-09-03T15:16:36;1.70;;;1.30;;
1178;SDS011;578;48.408;10.004;2022-09-03T15:19:15;1.90;;;1.13;;
1178;SDS011;578;48.408;10.004;2022-09-03T15:22:03;2.83;;;1.37;;
1178;SDS011;578;48.408;10.004;2022-09-03T15:24:42;3.10;;;1.80;;
1178;SDS011;578;48.408;10.004;2022-09-03T15:27:22;1.93;;;1.33;;
1178;SDS011;578;48.408;10.004;2022-09-03T15:30:04;1.70;;;1.20;;
1178;SDS011;578;48.408;10.004;2022-09-03T15:32:40;2.90;;;1.67;;
1178;SDS011;578;48.408;10.004;2022-09-03T15:35:29;2.10;;;1.10;;
1178;SDS011;578;48.408;10.004;2022-09-03T15:38:06;2.23;;;1.50;;
1178;SDS011;578;48.408;10.004;2022-09-03T15:40:36;2.37;;;1.37;;
1178;SDS011;578;48.408;10.004;2022-09-03T15:43:08;2.13;;;1.57;;
1178;SDS011;578;48.408;10.004;2022-09-03T15:45:48;2.13;;;1.40;;
1178;SDS011;578;48.408;10.004;2022-09-03T15:48:25;3.93;;;1.50;;
1178;SDS011;578;48.408;10.004;2022-09-03T15:51:01;2.00;;;1.50;;
1178;SDS011;578;48.408;10.004;2022-09-03T15:53:38;10.93;;;1.37;;
1178;SDS011;578;48.408;10.004;2022-09-03T15:56:13;1.53;;;1.00;;
1178;SDS011;578;48.408;10.004;2022-09-03T15:58:47;1.80;;;1.10;;
1178;SDS011;578;48.408;10.004;2022-09-03T16:01:22;2.53;;;1.27;;
1178;SDS011;578;48.408;10.004;2022-09-03T16:03:57;3.10;;;1.20;;
1178;SDS011;578;48.408;10.004;2022-09-03T16:06:36;1.90;;;1.40;;